Terminal Aerodrome Forecast
Issued by NWS

Home | Current Version | Previous Version | Text Only | Print | Product List | Glossary On
Versions: 1 2 3 4 5 6 7 8 9 10 11 12 13 14 15 16 17 18 19 20 21 22
000
FTAK31 PAJN 020304 AAA
TAFAYA
TAF AMD
PAYA 020304Z 0203/0224 10008KT P6SM VCSH SCT008 SCT015 OVC035
     FM020400 12008KT 6SM -RA BR SCT008 SCT015 OVC025
      TEMPO 0204/0208 2SM -SHRA BKN008 OVC015
     FM020900 VRB03KT 4SM -RA BKN025 OVC045
     FM021200 VRB04KT 2SM -RA BR BKN008 OVC015
     FM022000 24012KT 4SM -SHRA BKN025 OVC050
      AMD LTD TO CLD VIS AND WIND 0201/0209=

USA.gov is the U.S. government's official web portal to all federal, state and local government web resources and services.